Time;durP1;ratioP1;P1;durP2;ratioP2;P2;SDS_P1;SDS_P2;PMS_P1;PMS_P2;Temp;Humidity;BMP_temperature;BMP_pressure;BME280_temperature;BME280_humidity;BME280_pressure;Samples;Min_cycle;Max_cycle;Signal;HPM_P1;HPM_P2
2022/02/24 00:00:48;;;;;;;11.85;2.47;;;;;;;-142.75;100.00;77922.88;5030551;28;20018;-67
2022/02/24 00:03:13;;;;;;;13.23;2.58;;;;;;;-142.75;100.00;77924.84;5030237;28;20021;-68
2022/02/24 00:05:39;;;;;;;11.10;3.33;;;;;;;-142.75;100.00;77920.91;5038705;28;20067;-68
2022/02/24 00:08:04;;;;;;;13.50;3.07;;;;;;;-142.75;100.00;77909.06;5049899;28;20412;-67
2022/02/24 00:10:29;;;;;;;17.48;3.33;;;;;;;-142.75;100.00;77909.06;5049810;28;20702;-68
2022/02/24 00:12:55;;;;;;;13.90;2.47;;;;;;;-142.75;100.00;77905.13;5032354;28;20512;-68
2022/02/24 00:15:20;;;;;;;15.68;2.38;;;;;;;-142.75;100.00;77901.19;5032096;28;20554;-68
2022/02/24 00:17:45;;;;;;;17.08;2.63;;;;;;;-142.75;100.00;77895.28;5050087;28;20433;-68
2022/02/24 00:20:12;;;;;;;11.48;2.83;;;;;;;-142.75;100.00;77901.19;5032460;28;20116;-68
2022/02/24 00:22:37;;;;;;;17.73;3.00;;;;;;;-142.75;100.00;77893.31;5050001;28;20049;-68
2022/02/24 00:25:04;;;;;;;11.35;3.65;;;;;;;-142.75;100.00;77895.28;5050024;28;20017;-68
2022/02/24 00:27:30;;;;;;;15.03;2.60;;;;;;;-142.75;100.00;77881.50;5048724;28;20091;-68
2022/02/24 00:29:55;;;;;;;13.75;2.40;;;;;;;-142.75;100.00;77879.53;5031967;28;20445;-68
2022/02/24 00:32:20;;;;;;;8.57;2.25;;;;;;;-142.75;100.00;77877.56;5050101;28;20052;-68
2022/02/24 00:34:46;;;;;;;9.45;2.47;;;;;;;-142.75;100.00;77871.66;5049652;28;20021;-68
2022/02/24 00:37:14;;;;;;;11.33;2.53;;;;;;;-142.75;100.00;77865.75;5049901;28;20055;-68
2022/02/24 00:39:40;;;;;;;13.07;2.70;;;;;;;-142.75;100.00;77877.56;5037199;28;20549;-68
2022/02/24 00:42:05;;;;;;;9.90;2.83;;;;;;;-142.75;100.00;77869.69;5030381;28;20022;-68
2022/02/24 00:44:30;;;;;;;15.70;2.28;;;;;;;-142.75;100.00;77871.66;5033860;28;20021;-68
2022/02/24 00:46:56;;;;;;;13.57;2.55;;;;;;;-142.75;100.00;77871.66;5016319;28;20029;-68
2022/02/24 00:49:22;;;;;;;12.43;2.53;;;;;;;-142.75;100.00;77873.63;5033753;28;20025;-68
2022/02/24 00:51:48;;;;;;;11.27;2.47;;;;;;;-142.75;100.00;77869.69;5034439;28;20052;-68
2022/02/24 00:54:14;;;;;;;10.63;2.78;;;;;;;-142.75;100.00;77871.66;5033915;28;20594;-68
2022/02/24 00:56:39;;;;;;;11.98;3.20;;;;;;;-142.75;100.00;77867.72;5033926;28;20025;-68
2022/02/24 00:59:05;;;;;;;11.68;2.55;;;;;;;-142.75;100.00;77863.78;5015799;28;20040;-68
2022/02/24 01:01:30;;;;;;;10.18;2.22;;;;;;;-142.75;100.00;77861.81;5033759;28;20068;-68
2022/02/24 01:03:55;;;;;;;14.30;2.60;;;;;;;-142.75;100.00;77861.81;5033836;28;20035;-68
2022/02/24 01:06:21;;;;;;;15.43;3.33;;;;;;;-142.75;100.00;77846.06;5015757;28;20029;-68
2022/02/24 01:08:46;;;;;;;10.13;2.10;;;;;;;-142.75;100.00;77850.00;5033602;28;20279;-68
2022/02/24 01:11:11;;;;;;;12.43;2.22;;;;;;;-142.75;100.00;77848.03;5033898;28;20296;-68
2022/02/24 01:13:37;;;;;;;10.60;2.13;;;;;;;-142.75;100.00;77846.06;5034024;28;20032;-68
2022/02/24 01:16:03;;;;;;;15.30;2.78;;;;;;;-142.75;100.00;77844.09;5033766;28;20033;-68
2022/02/24 01:18:29;;;;;;;16.23;2.78;;;;;;;-142.75;100.00;77844.09;5033271;28;20052;-68
2022/02/24 01:20:55;;;;;;;15.68;2.83;;;;;;;-142.75;100.00;77830.31;5016230;28;20021;-68
2022/02/24 01:23:21;;;;;;;12.40;3.13;;;;;;;-142.75;100.00;77838.19;5033435;28;20049;-68
2022/02/24 01:25:46;;;;;;;11.90;2.63;;;;;;;-142.75;100.00;77824.41;5033299;28;20059;-68
2022/02/24 01:28:11;;;;;;;14.57;2.85;;;;;;;-142.75;100.00;77820.47;5033265;28;20021;-68
2022/02/24 01:30:37;;;;;;;16.88;3.95;;;;;;;-142.75;100.00;77818.50;5033274;28;20108;-67
2022/02/24 01:33:02;;;;;;;12.50;2.65;;;;;;;-142.75;100.00;77810.63;5031567;28;20036;-68
2022/02/24 01:35:28;;;;;;;12.35;2.72;;;;;;;-142.75;100.00;77806.69;5053135;28;20024;-67
2022/02/24 01:37:53;;;;;;;11.57;3.50;;;;;;;-142.75;100.00;77800.78;5052377;28;20040;-68
2022/02/24 01:40:19;;;;;;;12.87;2.63;;;;;;;-142.75;100.00;77798.81;5034503;28;20024;-68
2022/02/24 01:42:45;;;;;;;12.48;2.70;;;;;;;-142.75;100.00;77800.78;5052255;28;20278;-67
2022/02/24 01:45:12;;;;;;;9.23;2.50;;;;;;;-142.75;100.00;77783.06;5052221;28;20029;-68
2022/02/24 01:47:37;;;;;;;14.53;3.10;;;;;;;-142.75;100.00;77787.00;5052163;28;20025;-68
2022/02/24 01:50:04;;;;;;;13.93;3.55;;;;;;;-142.75;100.00;77777.16;5051894;28;20028;-68
2022/02/24 01:52:30;;;;;;;12.23;2.57;;;;;;;-142.75;100.00;77779.13;5034292;28;20442;-68
2022/02/24 01:54:55;;;;;;;15.52;3.35;;;;;;;-142.75;100.00;77765.34;5050593;28;20167;-68
2022/02/24 01:57:22;;;;;;;14.15;3.13;;;;;;;-142.75;100.00;77761.41;5043458;28;20022;-68
2022/02/24 01:59:48;;;;;;;17.30;2.47;;;;;;;-142.75;100.00;77763.38;5031782;28;20430;-68
2022/02/24 02:02:14;;;;;;;14.50;2.17;;;;;;;-142.75;100.00;77753.53;5032060;28;20040;-68
2022/02/24 02:04:39;;;;;;;10.50;2.10;;;;;;;-142.75;100.00;77739.75;5032033;28;20028;-68
2022/02/24 02:07:05;;;;;;;8.68;2.40;;;;;;;-142.75;100.00;77747.63;5032364;28;20036;-67
2022/02/24 02:09:32;;;;;;;14.65;2.85;;;;;;;-142.75;100.00;77739.75;5031873;28;20505;-68
2022/02/24 02:11:57;;;;;;;18.57;2.60;;;;;;;-142.75;100.00;77743.69;5031875;28;20025;-68
2022/02/24 02:14:22;;;;;;;12.50;2.42;;;;;;;-142.75;100.00;77741.72;5033839;28;20044;-68
2022/02/24 02:16:50;;;;;;;14.93;2.40;;;;;;;-142.75;100.00;77743.69;5032921;28;20033;-68
2022/02/24 02:19:16;;;;;;;11.97;2.63;;;;;;;-142.75;100.00;77731.88;5031486;28;20818;-68
2022/02/24 02:21:43;;;;;;;10.57;2.50;;;;;;;-142.75;100.00;77727.94;5014817;28;20033;-67
2022/02/24 02:24:08;;;;;;;;;;;;;;;-142.75;100.00;77723.97;5033390;28;20028;-68
2022/02/24 02:26:33;;;;;;;9.63;1.90;;;;;;;-142.75;100.00;77723.97;5051482;28;20358;-67
2022/02/24 02:28:59;;;;;;;17.23;2.65;;;;;;;-142.75;100.00;77722.00;5035653;28;20080;-67
2022/02/24 02:31:25;;;;;;;9.77;2.10;;;;;;;-142.75;100.00;77723.97;5031694;28;20043;-68
2022/02/24 02:33:59;;;;;;;;;;;;;;;-142.75;100.00;77723.97;5032006;28;20052;-68
2022/02/24 02:36:24;;;;;;;12.07;1.97;;;;;;;-142.75;100.00;77718.06;5031901;28;20039;-68
2022/02/24 02:38:49;;;;;;;9.13;2.27;;;;;;;-142.75;100.00;77723.97;5031298;28;20104;-68
2022/02/24 02:41:14;;;;;;;12.17;2.53;;;;;;;-142.75;100.00;77712.16;5043489;28;20330;-68
2022/02/24 02:43:40;;;;;;;12.98;2.42;;;;;;;-142.75;100.00;77700.34;5051428;28;20035;-68
2022/02/24 02:46:05;;;;;;;11.97;2.23;;;;;;;-142.75;100.00;77716.09;5051348;28;20040;-68
2022/02/24 02:48:30;;;;;;;9.23;2.42;;;;;;;-142.75;100.00;77696.41;5050658;28;20915;-68
2022/02/24 02:50:55;;;;;;;10.43;2.10;;;;;;;-142.75;100.00;77698.38;5051697;28;20447;-68
2022/02/24 02:53:21;;;;;;;13.07;2.93;;;;;;;-142.75;100.00;77700.34;5050815;28;20291;-68
2022/02/24 02:55:46;;;;;;;9.43;2.17;;;;;;;-142.75;100.00;77700.34;5051015;28;20036;-68
2022/02/24 02:58:11;;;;;;;10.83;2.50;;;;;;;-142.75;100.00;77696.41;5050351;28;20279;-68
2022/02/24 03:00:36;;;;;;;10.10;2.03;;;;;;;-142.75;100.00;77700.34;5050789;28;20310;-68
2022/02/24 03:03:02;;;;;;;10.48;2.50;;;;;;;-142.75;100.00;77686.56;5050901;28;20020;-67
2022/02/24 03:05:27;;;;;;;12.75;2.40;;;;;;;-142.75;100.00;77688.53;5050964;28;20043;-68
2022/02/24 03:07:52;;;;;;;10.25;2.00;;;;;;;-142.75;100.00;77676.72;5050456;28;20025;-67
2022/02/24 03:10:18;;;;;;;9.70;1.90;;;;;;;-142.75;100.00;77676.72;5050928;28;20580;-68
2022/02/24 03:12:43;;;;;;;9.98;2.67;;;;;;;-142.75;100.00;77666.88;5050663;28;20021;-67
2022/02/24 03:15:13;;;;;;;10.15;2.75;;;;;;;-142.75;100.00;77668.84;5050429;28;20025;-68
2022/02/24 03:17:40;;;;;;;11.83;2.50;;;;;;;-142.75;100.00;77662.94;5050491;28;20021;-68
2022/02/24 03:20:05;;;;;;;8.07;2.37;;;;;;;-142.75;100.00;77666.88;5050325;28;20032;-68
2022/02/24 03:22:31;;;;;;;11.48;2.55;;;;;;;-142.75;100.00;77662.94;5050851;28;20021;-67
2022/02/24 03:24:56;;;;;;;10.35;1.95;;;;;;;-142.75;100.00;77660.97;5050306;28;20029;-68
2022/02/24 03:27:22;;;;;;;7.57;2.23;;;;;;;-142.75;100.00;77655.06;5050218;28;20025;-68
2022/02/24 03:29:47;;;;;;;15.93;2.60;;;;;;;-142.75;100.00;77662.94;5049888;28;20268;-68
2022/02/24 03:32:12;;;;;;;9.50;2.58;;;;;;;-142.75;100.00;77666.88;5032128;28;20025;-68
2022/02/24 03:34:40;;;;;;;10.27;2.70;;;;;;;-142.75;100.00;77662.94;5049979;28;20085;-68
2022/02/24 03:37:05;;;;;;;12.00;2.87;;;;;;;-142.75;100.00;77670.81;5050284;28;20064;-68
2022/02/24 03:39:31;;;;;;;8.80;2.70;;;;;;;-142.75;100.00;77660.97;5049821;28;20540;-68
2022/02/24 03:41:56;;;;;;;11.98;2.80;;;;;;;-142.75;100.00;77662.94;5049968;28;20016;-68
2022/02/24 03:44:22;;;;;;;9.23;2.92;;;;;;;-142.75;100.00;77664.91;5049922;28;20056;-68
2022/02/24 03:46:48;;;;;;;12.65;2.85;;;;;;;-142.75;100.00;77672.78;5049773;28;20528;-68
2022/02/24 03:49:13;;;;;;;9.93;2.78;;;;;;;-142.75;100.00;77670.81;5049549;28;20418;-68
2022/02/24 03:51:38;;;;;;;15.50;3.58;;;;;;;-142.75;100.00;77660.97;5032450;28;20116;-68
2022/02/24 03:54:04;;;;;;;17.77;3.00;;;;;;;-142.75;100.00;77657.03;5051523;22;20478;-69
2022/02/24 03:56:29;;;;;;;10.13;2.65;;;;;;;-142.75;100.00;77657.03;5010433;28;20116;-67
2022/02/24 03:58:55;;;;;;;13.82;2.72;;;;;;;-142.75;100.00;77664.91;5028752;28;20059;-70
2022/02/24 04:01:20;;;;;;;13.45;2.67;;;;;;;-142.75;100.00;77653.09;5029776;28;20454;-69
2022/02/24 04:03:45;;;;;;;13.10;3.40;;;;;;;-142.75;100.00;77660.97;5012030;28;20406;-69
2022/02/24 04:06:11;;;;;;;10.17;2.60;;;;;;;-142.75;100.00;77653.09;5012075;28;20330;-68
2022/02/24 04:08:37;;;;;;;10.67;2.30;;;;;;;-142.75;100.00;77649.16;5029504;28;20272;-70
2022/02/24 04:11:02;;;;;;;9.35;3.00;;;;;;;-142.75;100.00;77653.09;5029610;28;20083;-69
2022/02/24 04:13:28;;;;;;;10.43;2.60;;;;;;;-142.75;100.00;77657.03;5011754;28;20040;-68
2022/02/24 04:15:53;;;;;;;16.05;2.60;;;;;;;-142.75;100.00;77653.09;5029652;28;20450;-70
2022/02/24 04:18:18;;;;;;;12.25;3.20;;;;;;;-142.75;100.00;77645.22;5028698;28;20025;-69
2022/02/24 04:20:45;;;;;;;13.13;2.67;;;;;;;-142.75;100.00;77666.88;5029835;28;20075;-69
2022/02/24 04:23:11;;;;;;;13.30;2.93;;;;;;;-142.75;100.00;77653.09;5011988;28;20280;-70
2022/02/24 04:25:36;;;;;;;11.95;2.95;;;;;;;-142.75;100.00;77660.97;5011781;28;20033;-69
2022/02/24 04:28:01;;;;;;;9.82;2.78;;;;;;;-142.75;100.00;77659.00;5011581;28;20031;-69
2022/02/24 04:30:27;;;;;;;14.95;2.95;;;;;;;-142.75;100.00;77649.16;5029331;28;20021;-70
2022/02/24 04:32:52;;;;;;;14.68;3.10;;;;;;;-142.75;100.00;77647.19;5029431;28;20076;-70
2022/02/24 04:35:18;;;;;;;12.13;2.75;;;;;;;-142.75;100.00;77641.28;5011734;28;20021;-69
2022/02/24 04:37:44;;;;;;;10.95;2.90;;;;;;;-142.75;100.00;77643.25;5029628;28;20033;-70
2022/02/24 04:40:10;;;;;;;14.07;2.88;;;;;;;-142.75;100.00;77645.22;5029038;28;20025;-70
2022/02/24 04:42:35;;;;;;;12.75;2.83;;;;;;;-142.75;100.00;77645.22;5035506;28;20048;-69
2022/02/24 04:45:00;;;;;;;13.73;2.65;;;;;;;-142.75;100.00;77637.34;5031283;28;20619;-70
2022/02/24 04:47:27;;;;;;;16.30;2.87;;;;;;;-142.75;100.00;77637.34;5031188;28;20037;-70
2022/02/24 04:49:52;;;;;;;;;;;;;;;-142.75;100.00;77633.41;5049162;28;20271;-68
2022/02/24 04:52:17;;;;;;;8.83;2.27;;;;;;;-142.75;100.00;77631.44;5031644;28;20275;-69
2022/02/24 04:54:43;;;;;;;13.25;2.58;;;;;;;-142.75;100.00;77623.56;5048854;28;20029;-70
2022/02/24 04:57:08;;;;;;;10.82;2.35;;;;;;;-142.75;100.00;77625.53;5048870;28;20025;-69
2022/02/24 04:59:34;;;;;;;10.10;2.53;;;;;;;-142.75;100.00;77613.72;5044523;28;20025;-68
2022/02/24 05:01:59;;;;;;;16.13;3.05;;;;;;;-142.75;100.00;77613.72;5031092;28;20281;-70
2022/02/24 05:04:24;;;;;;;11.20;2.43;;;;;;;-142.75;100.00;77617.66;5013257;28;20475;-69
2022/02/24 05:06:49;;;;;;;12.83;2.77;;;;;;;-142.75;100.00;77615.69;5011657;28;20268;-67
2022/02/24 05:09:15;;;;;;;14.50;2.65;;;;;;;-142.75;100.00;77617.66;5048623;28;20028;-70
2022/02/24 05:11:40;;;;;;;14.55;2.72;;;;;;;-142.75;100.00;77621.59;5048858;28;20554;-69
2022/02/24 05:14:05;;;;;;;13.33;2.90;;;;;;;-142.75;100.00;77611.75;5048909;28;20035;-69
2022/02/24 05:16:31;;;;;;;12.70;3.73;;;;;;;-142.75;100.00;77597.97;5048460;28;20310;-69
2022/02/24 05:18:56;;;;;;;11.48;2.58;;;;;;;-142.75;100.00;77605.84;5048497;28;20701;-69
2022/02/24 05:21:21;;;;;;;16.57;3.50;;;;;;;-142.75;100.00;77596.00;5049274;28;20443;-69
2022/02/24 05:23:47;;;;;;;17.00;2.70;;;;;;;-142.75;100.00;77596.00;5048722;28;20264;-69
2022/02/24 05:26:12;;;;;;;13.40;2.27;;;;;;;-142.75;100.00;77590.09;5048585;28;20280;-70
2022/02/24 05:28:37;;;;;;;9.93;2.20;;;;;;;-142.75;100.00;77592.06;5049309;28;20932;-70
2022/02/24 05:31:03;;;;;;;16.35;2.55;;;;;;;-142.75;100.00;77594.03;5034428;28;20418;-70
2022/02/24 05:33:29;;;;;;;12.65;2.45;;;;;;;-142.75;100.00;77586.16;5034386;28;20021;-69
2022/02/24 05:35:56;;;;;;;10.37;2.37;;;;;;;-142.75;100.00;77586.16;5052148;28;20057;-69
2022/02/24 05:38:22;;;;;;;10.27;2.57;;;;;;;-142.75;100.00;77576.31;5034054;28;20021;-69
2022/02/24 05:40:47;;;;;;;9.73;2.45;;;;;;;-142.75;100.00;77570.41;5052227;28;20414;-69
2022/02/24 05:43:13;;;;;;;11.25;2.90;;;;;;;-142.75;100.00;77570.41;5052031;28;20061;-68
2022/02/24 05:45:38;;;;;;;14.23;2.13;;;;;;;-142.75;100.00;77566.47;5052104;28;20024;-69
2022/02/24 05:48:04;;;;;;;10.73;2.40;;;;;;;-142.75;100.00;77566.47;5052052;28;20024;-69
2022/02/24 05:50:29;;;;;;;13.93;2.90;;;;;;;-142.75;100.00;77550.72;5034134;28;20469;-69
2022/02/24 05:53:01;;;;;;;14.47;2.53;;;;;;;-142.75;100.00;77550.72;5052340;28;20364;-69
2022/02/24 05:55:27;;;;;;;11.13;2.30;;;;;;;-142.75;100.00;77548.75;5051678;28;20279;-69
2022/02/24 05:57:52;;;;;;;10.63;2.90;;;;;;;-142.75;100.00;77550.72;5051753;28;20021;-70
2022/02/24 06:00:17;;;;;;;11.77;2.50;;;;;;;-142.75;100.00;77554.66;5051836;28;20328;-69
2022/02/24 06:02:43;;;;;;;11.07;2.33;;;;;;;-142.75;100.00;77542.84;5051872;28;20055;-69
2022/02/24 06:05:08;;;;;;;14.05;2.80;;;;;;;-142.75;100.00;77550.72;5033594;28;20118;-69
2022/02/24 06:07:33;;;;;;;10.25;2.40;;;;;;;-142.75;100.00;77548.75;5051688;28;20031;-69
2022/02/24 06:09:59;;;;;;;13.57;2.55;;;;;;;-142.75;100.00;77538.91;5033611;28;20021;-70
2022/02/24 06:12:24;;;;;;;7.97;2.37;;;;;;;-142.75;100.00;77540.88;5051605;28;20061;-69
2022/02/24 06:14:49;;;;;;;15.63;2.73;;;;;;;-142.75;100.00;77540.88;5051419;28;20275;-68
2022/02/24 06:17:14;;;;;;;15.37;2.63;;;;;;;-142.75;100.00;77544.81;5051951;28;20029;-70
2022/02/24 06:19:40;;;;;;;13.50;2.47;;;;;;;-142.75;100.00;77536.94;5051237;28;20278;-70
2022/02/24 06:22:05;;;;;;;11.70;3.03;;;;;;;-142.75;100.00;77533.00;5051984;28;20410;-69
2022/02/24 06:24:31;;;;;;;11.27;3.28;;;;;;;-142.75;100.00;77534.97;5033556;28;20547;-69
2022/02/24 06:26:56;;;;;;;11.90;2.97;;;;;;;-142.75;100.00;77531.03;5051489;28;20110;-69
2022/02/24 06:29:21;;;;;;;11.35;2.88;;;;;;;-142.75;100.00;77531.03;5022475;28;20112;-69
2022/02/24 06:31:47;;;;;;;10.20;2.50;;;;;;;-142.75;100.00;77536.94;5013707;28;20044;-70
2022/02/24 06:34:12;;;;;;;10.70;2.30;;;;;;;-142.75;100.00;77533.00;5030882;28;20407;-68
2022/02/24 06:36:37;;;;;;;8.38;2.70;;;;;;;-142.75;100.00;77536.94;5031437;28;20028;-69
2022/02/24 06:39:03;;;;;;;11.13;2.47;;;;;;;-142.75;100.00;77536.94;5030957;28;20048;-69
2022/02/24 06:41:28;;;;;;;10.25;1.95;;;;;;;-142.75;100.00;77533.00;5013403;28;20025;-69
2022/02/24 06:43:53;;;;;;;17.73;3.33;;;;;;;-142.75;100.00;77533.00;5031692;28;20033;-70
2022/02/24 06:46:19;;;;;;;13.10;2.60;;;;;;;-142.75;100.00;77533.00;5031222;28;20646;-69
2022/02/24 06:48:45;;;;;;;12.43;2.55;;;;;;;-142.75;100.00;77529.06;5030858;28;20022;-69
2022/02/24 06:51:11;;;;;;;15.17;2.30;;;;;;;-142.75;100.00;77515.28;5050979;28;20033;-69
2022/02/24 06:53:36;;;;;;;8.23;1.88;;;;;;;-142.75;100.00;77513.31;5050779;28;20418;-69
2022/02/24 06:56:01;;;;;;;13.60;3.05;;;;;;;-142.75;100.00;77507.41;5050870;28;20486;-69
2022/02/24 06:58:27;;;;;;;9.90;2.33;;;;;;;-142.75;100.00;77505.44;5050363;28;20075;-68
2022/02/24 07:00:52;;;;;;;14.37;2.93;;;;;;;-142.75;100.00;77499.53;5051225;28;20036;-69
2022/02/24 07:03:17;;;;;;;7.93;2.15;;;;;;;-142.75;100.00;77503.47;5051148;28;20275;-69
2022/02/24 07:05:43;;;;;;;12.00;2.40;;;;;;;-142.75;100.00;77497.56;5051233;28;20482;-69
2022/02/24 07:08:08;;;;;;;11.43;2.35;;;;;;;-142.75;100.00;77499.53;5050457;28;20049;-68
2022/02/24 07:10:33;;;;;;;9.65;1.95;;;;;;;-142.75;100.00;77485.75;5036995;28;20032;-71
2022/02/24 07:12:59;;;;;;;9.30;1.90;;;;;;;-142.75;100.00;77473.94;5031640;28;20117;-69
2022/02/24 07:15:25;;;;;;;9.60;2.05;;;;;;;-142.75;100.00;77468.03;5031864;28;20025;-68
2022/02/24 07:17:50;;;;;;;8.30;2.42;;;;;;;-142.75;100.00;77460.13;5030542;28;20223;-67
2022/02/24 07:20:17;;;;;;;12.93;2.65;;;;;;;-142.75;100.00;77462.13;5030710;28;20104;-67
2022/02/24 07:22:43;;;;;;;13.43;2.30;;;;;;;-142.75;100.00;77460.13;5031333;28;20479;-68
2022/02/24 07:25:09;;;;;;;;;;;;;;;-142.75;100.00;77454.25;5031019;28;20029;-67
2022/02/24 07:27:35;;;;;;;7.87;1.90;;;;;;;-142.75;100.00;77446.34;5012997;28;20354;-67
2022/02/24 07:30:02;;;;;;;7.97;1.88;;;;;;;-142.75;100.00;77444.38;5030514;28;20064;-68
2022/02/24 07:32:28;;;;;;;10.10;1.90;;;;;;;-142.75;100.00;77432.56;5029026;28;20025;-68
2022/02/24 07:34:53;;;;;;;9.30;1.58;;;;;;;-142.75;100.00;77438.47;5050336;28;20078;-67
2022/02/24 07:37:19;;;;;;;8.55;1.63;;;;;;;-142.75;100.00;77438.47;5020268;28;20463;-68
2022/02/24 07:39:44;;;;;;;11.75;2.25;;;;;;;-142.75;100.00;77438.47;5030062;28;20359;-68
2022/02/24 07:42:10;;;;;;;7.82;1.85;;;;;;;-142.75;100.00;77428.63;5030453;28;20029;-67
2022/02/24 07:44:35;;;;;;;13.18;1.92;;;;;;;-142.75;100.00;77416.81;5030500;28;20056;-68
2022/02/24 07:47:01;;;;;;;7.75;1.27;;;;;;;-142.75;100.00;77418.78;5012308;28;20404;-68
2022/02/24 07:49:26;;;;;;;6.65;1.45;;;;;;;-142.75;100.00;77440.44;5029849;28;20398;-67
2022/02/24 07:51:52;;;;;;;8.13;1.80;;;;;;;-142.75;100.00;77406.97;5029771;28;20026;-67
2022/02/24 07:54:22;;;;;;;7.53;1.83;;;;;;;-142.75;100.00;77399.09;5011952;28;20040;-67
2022/02/24 07:56:50;;;;;;;10.07;1.90;;;;;;;-142.75;100.00;77393.19;5012545;28;20025;-67
2022/02/24 07:59:15;;;;;;;6.83;1.60;;;;;;;-142.75;100.00;77397.13;5029976;28;20029;-68
2022/02/24 08:01:41;;;;;;;7.32;1.38;;;;;;;-142.75;100.00;77406.97;5012203;28;20040;-67
2022/02/24 08:04:06;;;;;;;7.05;1.75;;;;;;;-142.75;100.00;77405.00;5012282;28;20025;-67
2022/02/24 08:06:31;;;;;;;6.60;1.52;;;;;;;-142.75;100.00;77397.13;5012565;28;20367;-67
2022/02/24 08:08:57;;;;;;;8.80;2.10;;;;;;;-142.75;100.00;77385.31;5029824;28;20075;-69
2022/02/24 08:11:22;;;;;;;5.85;1.55;;;;;;;-142.75;100.00;77401.06;5030187;28;20029;-69
2022/02/24 08:13:47;;;;;;;11.07;2.03;;;;;;;-142.75;100.00;77393.19;5012204;28;20112;-69
2022/02/24 08:16:13;;;;;;;10.77;2.00;;;;;;;-142.75;100.00;77377.44;5029728;28;20060;-69
2022/02/24 08:18:38;;;;;;;7.73;1.90;;;;;;;-142.75;100.00;77385.31;5012133;28;20033;-69
2022/02/24 08:21:03;;;;;;;7.57;1.87;;;;;;;-142.75;100.00;77387.28;5012239;28;20268;-68
2022/02/24 08:23:29;;;;;;;6.78;1.80;;;;;;;-142.75;100.00;77375.47;5011975;28;20280;-69
2022/02/24 08:25:54;;;;;;;8.68;1.60;;;;;;;-142.75;100.00;77373.50;5029876;28;20076;-69
2022/02/24 08:28:19;;;;;;;6.03;1.60;;;;;;;-142.75;100.00;77365.63;5011955;28;20096;-69
2022/02/24 08:30:45;;;;;;;10.65;1.60;;;;;;;-142.75;100.00;77355.78;5011805;28;20040;-68
2022/02/24 08:33:11;;;;;;;8.52;1.63;;;;;;;-142.75;100.00;77328.22;5030464;28;20024;-68
2022/02/24 08:35:37;;;;;;;7.90;2.00;;;;;;;-142.75;100.00;77328.22;5049446;28;20033;-67
2022/02/24 08:38:04;;;;;;;10.40;1.60;;;;;;;-142.75;100.00;77338.06;5031541;28;20028;-67
2022/02/24 08:40:29;;;;;;;9.07;1.50;;;;;;;-142.75;100.00;77338.06;5049412;28;20029;-67
2022/02/24 08:42:55;;;;;;;14.05;2.20;;;;;;;-142.75;100.00;77336.09;5049093;28;20090;-67
2022/02/24 08:45:21;;;;;;;8.93;2.17;;;;;;;-142.75;100.00;77338.06;5031699;28;20075;-67
2022/02/24 08:47:47;;;;;;;7.43;2.20;;;;;;;-142.75;100.00;77334.13;5049143;28;20028;-65
2022/02/24 08:50:13;;;;;;;13.63;2.17;;;;;;;-142.75;100.00;77326.25;5049618;28;20036;-65
2022/02/24 08:52:39;;;;;;;7.55;1.83;;;;;;;-142.75;100.00;77330.19;5049385;28;20021;-66
2022/02/24 08:55:04;;;;;;;5.22;1.40;;;;;;;-142.75;100.00;77312.47;5049292;28;20033;-67
2022/02/24 08:57:30;;;;;;;9.93;1.60;;;;;;;-142.75;100.00;77310.50;5049275;28;20434;-66
2022/02/24 08:59:55;;;;;;;11.75;2.03;;;;;;;-142.75;100.00;77302.63;5049126;28;20063;-64
2022/02/24 09:02:21;;;;;;;15.65;2.50;;;;;;;-142.75;100.00;77298.69;5049185;28;20502;-65
2022/02/24 09:04:46;;;;;;;13.02;2.38;;;;;;;-142.75;100.00;77302.63;5034390;28;20032;-66
2022/02/24 09:07:12;;;;;;;9.82;2.22;;;;;;;-142.75;100.00;77282.94;5033847;28;20475;-64
2022/02/24 09:09:37;;;;;;;8.75;2.35;;;;;;;-142.75;100.00;77286.88;5033142;28;20033;-64
2022/02/24 09:12:03;;;;;;;10.38;1.80;;;;;;;-142.75;100.00;77286.88;5033343;28;20483;-66
2022/02/24 09:14:29;;;;;;;17.17;2.75;;;;;;;-142.75;100.00;77273.09;5033272;28;20029;-65
2022/02/24 09:16:54;;;;;;;;;;;;;;;-142.75;100.00;77263.25;5033563;28;20067;-67
2022/02/24 09:19:20;;;;;;;7.70;1.77;;;;;;;-142.75;100.00;77259.31;5015200;28;19920;-65
2022/02/24 09:21:45;;;;;;;12.63;2.17;;;;;;;-142.75;100.00;77251.44;5032960;28;20021;-65
2022/02/24 09:24:11;;;;;;;8.55;2.10;;;;;;;-142.75;100.00;77247.50;5032980;28;20022;-65
2022/02/24 09:26:36;;;;;;;9.25;2.10;;;;;;;-142.75;100.00;77212.06;5033063;28;20052;-67
2022/02/24 09:29:04;;;;;;;9.68;2.47;;;;;;;-142.75;100.00;77200.25;5014784;28;20029;-67
2022/02/24 09:31:29;;;;;;;7.93;2.00;;;;;;;-142.75;100.00;77184.50;5032554;28;20021;-66
2022/02/24 09:33:55;;;;;;;9.65;2.22;;;;;;;-142.75;100.00;77153.00;5015188;28;20423;-65
2022/02/24 09:36:20;;;;;;;9.35;2.03;;;;;;;-142.75;100.00;77168.75;5048883;28;20490;-67
2022/02/24 09:38:46;;;;;;;13.88;2.15;;;;;;;-142.75;100.00;77143.16;5052392;28;20100;-67
2022/02/24 09:41:11;;;;;;;13.38;2.88;;;;;;;-142.75;100.00;77125.44;5052738;28;20035;-66
2022/02/24 09:43:38;;;;;;;11.95;2.55;;;;;;;-142.75;100.00;77117.56;5052303;28;20036;-67
2022/02/24 09:46:10;;;;;;;16.47;2.53;;;;;;;-142.75;100.00;77064.41;5042792;28;20398;-68
2022/02/24 09:48:37;;;;;;;17.97;2.43;;;;;;;-142.75;100.00;76991.56;5032312;28;20441;-64
2022/02/24 09:51:08;;;;;;;8.17;2.83;;;;;;;-142.75;100.00;76877.38;5032299;28;20116;-65
2022/02/24 09:53:37;;;;;;;12.53;2.23;;;;;;;-142.75;100.00;76877.38;5032217;28;20025;-67
2022/02/24 09:56:04;;;;;;;11.40;3.00;;;;;;;-142.75;100.00;76871.47;5032602;28;20022;-66
2022/02/24 09:58:31;;;;;;;17.05;2.47;;;;;;;-142.75;100.00;76822.25;5032149;28;20022;-67
2022/02/24 10:00:59;;;;;;;14.73;2.47;;;;;;;-142.75;100.00;76765.19;5032195;28;20658;-66
2022/02/24 10:03:34;;;;;;;12.77;2.58;;;;;;;-142.75;100.00;76719.91;5014559;28;20070;-66
2022/02/24 10:06:01;;;;;;;11.40;2.08;;;;;;;-142.75;100.00;76763.22;5032314;28;20040;-66
2022/02/24 10:08:32;;;;;;;9.15;2.20;;;;;;;-142.75;100.00;76735.66;5014091;28;20032;-67
2022/02/24 10:11:01;;;;;;;13.07;2.03;;;;;;;-142.75;100.00;76698.25;5049739;28;20028;-67
2022/02/24 10:13:28;;;;;;;14.10;2.47;;;;;;;-142.75;100.00;76721.88;5051964;28;20094;-68
2022/02/24 10:16:01;;;;;;;17.92;2.40;;;;;;;-142.75;100.00;76777.00;5050832;28;20025;-68
2022/02/24 10:18:30;;;;;;;12.02;2.33;;;;;;;-142.75;100.00;76780.94;5040079;28;20013;-69
2022/02/24 10:21:00;;;;;;;11.50;2.38;;;;;;;-142.75;100.00;76719.91;5033461;28;20514;-69
2022/02/24 10:23:34;;;;;;;10.73;1.92;;;;;;;-142.75;100.00;76696.28;5031768;28;20037;-67
2022/02/24 10:26:11;;;;;;;14.55;2.40;;;;;;;-142.75;100.00;76672.66;5047866;28;20020;-69
2022/02/24 10:28:37;;;;;;;11.27;2.50;;;;;;;-142.75;100.00;76670.69;5051656;28;20029;-69
2022/02/24 10:31:15;;;;;;;12.20;2.40;;;;;;;-142.75;100.00;76651.00;5042771;28;20244;-68
2022/02/24 10:33:44;;;;;;;15.93;2.63;;;;;;;-142.75;100.00;76733.69;5049529;28;20637;-69
2022/02/24 10:36:24;;;;;;;9.20;2.05;;;;;;;-142.75;100.00;76818.31;5033726;28;20170;-69
2022/02/24 10:39:00;;;;;;;11.82;2.58;;;;;;;-142.75;100.00;76836.03;5051294;28;20108;-69
2022/02/24 10:41:30;;;;;;;9.20;2.15;;;;;;;-142.75;100.00;76873.44;5036240;28;20017;-69
2022/02/24 10:44:18;;;;;;;12.90;3.10;;;;;;;-142.75;100.00;76863.59;5051420;28;20029;-69
2022/02/24 10:46:49;;;;;;;7.95;1.92;;;;;;;-142.75;100.00;76851.78;5033347;28;20115;-69
2022/02/24 10:49:35;;;;;;;12.15;2.20;;;;;;;-142.75;100.00;76887.22;5031495;28;20029;-69
2022/02/24 10:52:15;;;;;;;9.18;2.63;;;;;;;-142.75;100.00;76901.00;5051181;28;20598;-69
2022/02/24 10:55:01;;;;;;;8.65;1.80;;;;;;;-142.75;100.00;76920.69;5050899;28;20075;-69
2022/02/24 10:57:27;;;;;;;9.87;2.30;;;;;;;-142.75;100.00;76897.06;5051161;28;20546;-69
2022/02/24 10:59:57;;;;;;;10.50;2.37;;;;;;;-142.75;100.00;76845.88;5050743;28;20103;-70